logo
Search for airport 
image banner adimage banner adimage banner ad
image banner ad

YAOD - Aust Age Of Dinosaurs Museum

Located in , Australia

ICAO - , IATA -

Data provided by Airmate  

General information

Coordinates: S22°28'48" E143°10'57"
Elevation is 898 feet MSL.
 
View others Airports in Queensland

Operational data

Special qualification required
Current time UTC:
Current local time:
Weather at : - ( 0 km )
METAR: YSSY 231745Z AUTO 16021KT 9999 -SHRA SCT007 SCT014 BKN017 20/19 Q1013 RESHRA
View NOTAMs / SUP AIP / TFR affecting this airport [VIEW]
Communications frequencies: [VIEW]

Runways:

Airport contact information

Address: Australia

Satellite view of YAOD